Time;durP1;ratioP1;P1;durP2;ratioP2;P2;SDS_P1;SDS_P2;PMS_P1;PMS_P2;Temp;Humidity;BMP_temperature;BMP_pressure;BME280_temperature;BME280_humidity;BME280_pressure;Samples;Min_cycle;Max_cycle;Signal;HPM_P1;HPM_P2
2022/03/25 00:01:57;;;;;;;76.82;51.38;;;;;;;11.52;54.09;102809.06;5085091;28;20540;-66
2022/03/25 00:04:23;;;;;;;73.22;52.28;;;;;;;11.39;54.38;102798.91;5084735;28;20027;-66
2022/03/25 00:06:48;;;;;;;80.07;49.92;;;;;;;11.43;54.36;102809.41;5086363;28;20021;-65
2022/03/25 00:09:14;;;;;;;74.38;50.95;;;;;;;11.32;54.71;102804.47;5072484;28;20025;-66
2022/03/25 00:11:42;;;;;;;79.25;52.58;;;;;;;11.36;54.70;102810.56;5078688;28;20039;-65
2022/03/25 00:14:07;;;;;;;72.20;50.22;;;;;;;11.19;54.93;102811.13;5085238;28;20364;-65
2022/03/25 00:16:33;;;;;;;75.30;50.97;;;;;;;11.03;55.56;102807.22;5076867;28;20040;-65
2022/03/25 00:18:59;;;;;;;80.43;50.42;;;;;;;10.99;55.59;102800.28;5072377;28;20036;-65
2022/03/25 00:21:24;;;;;;;73.45;49.55;;;;;;;11.13;54.94;102811.34;5069340;28;20058;-66
2022/03/25 00:23:52;;;;;;;69.63;48.17;;;;;;;11.21;55.12;102811.94;5078981;28;20031;-65
2022/03/25 00:26:17;;;;;;;75.10;50.17;;;;;;;11.07;55.27;102811.53;5089972;28;20052;-65
2022/03/25 00:28:45;;;;;;;74.78;50.28;;;;;;;10.82;55.76;102806.16;5111103;28;20065;-65
2022/03/25 00:31:10;;;;;;;76.15;51.58;;;;;;;10.88;55.76;102811.25;5097134;28;20028;-66
2022/03/25 00:33:42;;;;;;;78.10;52.03;;;;;;;10.66;56.23;102811.97;5099873;28;20032;-65
2022/03/25 00:36:10;;;;;;;75.95;50.55;;;;;;;10.65;56.63;102814.69;5096131;28;20547;-65
2022/03/25 00:38:38;;;;;;;82.28;52.88;;;;;;;10.67;56.46;102813.69;5074938;28;20024;-65
2022/03/25 00:41:07;;;;;;;84.18;51.55;;;;;;;10.62;56.67;102807.69;5075321;28;20397;-66
2022/03/25 00:43:34;;;;;;;74.10;51.40;;;;;;;10.54;56.62;102812.34;5087103;28;20544;-65
2022/03/25 00:46:00;;;;;;;77.88;50.95;;;;;;;10.67;56.78;102811.03;5097857;28;20061;-65
2022/03/25 00:48:27;;;;;;;76.05;51.20;;;;;;;10.73;56.47;102809.97;5076232;28;20466;-65
2022/03/25 00:50:53;;;;;;;77.22;50.20;;;;;;;10.63;56.42;102801.41;5089849;28;20467;-66
2022/03/25 00:53:19;;;;;;;80.72;49.08;;;;;;;10.75;55.90;102804.63;5107379;28;20020;-65
2022/03/25 00:55:51;;;;;;;81.00;50.80;;;;;;;10.49;56.99;102810.75;5109889;28;20033;-65
2022/03/25 00:58:19;;;;;;;82.57;51.78;;;;;;;10.64;56.30;102794.31;5077975;28;20054;-65
2022/03/25 01:00:45;;;;;;;76.38;51.60;;;;;;;10.60;56.34;102796.19;5097635;28;20390;-65
2022/03/25 01:03:12;;;;;;;75.63;49.97;;;;;;;10.40;56.49;102788.84;5083597;28;20442;-65
2022/03/25 01:05:40;;;;;;;79.57;49.47;;;;;;;10.45;56.44;102802.88;5091841;28;20489;-65
2022/03/25 01:08:06;;;;;;;73.95;50.13;;;;;;;10.46;56.20;102803.75;5094802;28;20024;-65
2022/03/25 01:10:34;;;;;;;81.45;49.90;;;;;;;10.43;56.54;102803.84;5056524;28;20084;-65
2022/03/25 01:12:59;;;;;;;72.70;48.40;;;;;;;10.33;56.59;102802.41;5101063;28;20363;-65
2022/03/25 01:15:26;;;;;;;75.57;49.67;;;;;;;10.28;56.62;102809.63;5104436;28;20031;-66
2022/03/25 01:17:52;;;;;;;74.90;49.80;;;;;;;10.21;56.87;102806.25;5077067;28;20023;-65
2022/03/25 01:20:18;;;;;;;76.18;48.60;;;;;;;10.25;56.58;102805.25;5102792;28;20421;-65
2022/03/25 01:22:44;;;;;;;74.57;50.38;;;;;;;10.29;56.32;102809.56;5101244;28;20043;-65
2022/03/25 01:25:13;;;;;;;77.47;49.55;;;;;;;10.22;56.68;102808.84;5083205;28;20027;-66
2022/03/25 01:27:40;;;;;;;75.32;49.78;;;;;;;10.30;56.57;102807.81;5109566;28;20123;-65
2022/03/25 01:30:09;;;;;;;79.40;49.50;;;;;;;10.04;57.10;102803.22;5081255;28;20028;-65
2022/03/25 01:32:34;;;;;;;77.15;50.45;;;;;;;10.04;57.03;102806.75;5101005;28;20028;-65
2022/03/25 01:35:06;;;;;;;73.63;49.83;;;;;;;10.18;56.32;102801.03;5083703;28;20040;-65
2022/03/25 01:37:31;;;;;;;73.55;48.40;;;;;;;10.00;56.88;102805.13;5097155;28;20032;-65
2022/03/25 01:39:58;;;;;;;78.55;49.58;;;;;;;9.91;56.90;102790.31;5094202;28;20074;-65
2022/03/25 01:42:35;;;;;;;69.45;47.10;;;;;;;10.00;56.87;102802.44;5078347;28;20479;-65
2022/03/25 01:45:03;;;;;;;75.55;48.10;;;;;;;9.82;57.28;102793.19;5112908;28;20031;-65
2022/03/25 01:47:30;;;;;;;76.50;47.55;;;;;;;9.73;57.61;102789.00;5094132;28;20108;-65
2022/03/25 01:49:58;;;;;;;72.88;47.85;;;;;;;9.64;57.60;102804.34;5096140;28;20073;-65
2022/03/25 01:52:23;;;;;;;73.03;47.75;;;;;;;9.70;57.61;102798.88;5111275;28;20110;-66
2022/03/25 01:54:49;;;;;;;73.53;49.47;;;;;;;9.63;58.36;102806.13;5108222;28;20464;-65
2022/03/25 01:57:15;;;;;;;72.80;47.65;;;;;;;9.61;57.83;102802.66;5105236;28;20107;-65
2022/03/25 01:59:41;;;;;;;71.70;47.47;;;;;;;9.56;57.97;102801.91;5078623;28;20118;-65
2022/03/25 02:02:08;;;;;;;68.72;45.35;;;;;;;9.57;57.87;102806.31;5111770;28;20059;-65
2022/03/25 02:04:35;;;;;;;71.82;48.67;;;;;;;9.48;57.64;102802.13;5097698;28;20062;-66
2022/03/25 02:07:04;;;;;;;70.00;46.75;;;;;;;9.29;58.36;102806.16;5081728;28;20024;-65
2022/03/25 02:09:31;;;;;;;68.80;45.03;;;;;;;9.35;58.05;102803.34;5108705;28;20035;-65
2022/03/25 02:11:57;;;;;;;69.30;45.45;;;;;;;9.26;58.67;102803.59;5103950;28;20019;-65
2022/03/25 02:14:23;;;;;;;70.25;43.75;;;;;;;9.11;58.85;102802.19;5094092;28;20024;-65
2022/03/25 02:16:50;;;;;;;67.20;43.55;;;;;;;9.21;57.88;102806.38;5102580;28;20024;-65
2022/03/25 02:19:18;;;;;;;70.03;46.22;;;;;;;9.03;58.64;102806.81;5107839;28;20027;-65
2022/03/25 02:21:45;;;;;;;65.65;44.72;;;;;;;9.01;58.61;102806.00;5080943;28;20409;-65
2022/03/25 02:24:15;;;;;;;68.57;44.28;;;;;;;8.99;58.60;102805.16;5079291;28;20039;-65
2022/03/25 02:26:41;;;;;;;73.97;45.35;;;;;;;8.92;58.64;102800.94;5075144;28;20040;-65
2022/03/25 02:29:11;;;;;;;63.28;42.83;;;;;;;8.95;58.54;102807.03;5108474;28;20024;-65
2022/03/25 02:31:37;;;;;;;63.97;43.00;;;;;;;8.95;58.48;102808.81;5077270;28;20055;-65
2022/03/25 02:34:08;;;;;;;71.65;44.05;;;;;;;8.90;58.03;102805.41;5090603;28;20065;-65
2022/03/25 02:36:43;;;;;;;63.50;42.70;;;;;;;8.89;58.49;102806.31;5082437;28;20054;-65
2022/03/25 02:39:11;;;;;;;62.72;42.25;;;;;;;8.63;59.14;102798.06;5092044;28;20055;-65
2022/03/25 02:41:36;;;;;;;63.38;41.00;;;;;;;8.63;58.83;102803.38;5099699;28;20031;-65
2022/03/25 02:44:02;;;;;;;65.93;42.10;;;;;;;8.58;59.00;102793.78;5094222;28;20431;-65
2022/03/25 02:46:28;;;;;;;66.90;42.45;;;;;;;8.40;59.35;102797.72;5104351;28;20035;-65
2022/03/25 02:48:54;;;;;;;62.80;42.45;;;;;;;8.61;58.51;102799.88;5077300;28;20032;-65
2022/03/25 02:51:20;;;;;;;63.35;39.97;;;;;;;8.45;58.70;102795.84;5103324;28;20031;-65
2022/03/25 02:53:45;;;;;;;62.80;39.85;;;;;;;8.46;58.70;102797.56;5081773;28;20028;-65
2022/03/25 02:56:11;;;;;;;59.80;40.67;;;;;;;8.52;58.64;102793.91;5098584;28;20142;-65
2022/03/25 02:58:37;;;;;;;61.25;40.58;;;;;;;8.48;58.46;102795.78;5096827;28;20891;-65
2022/03/25 03:01:03;;;;;;;60.58;40.78;;;;;;;8.52;57.99;102796.56;5093657;28;20501;-65
2022/03/25 03:03:29;;;;;;;63.13;40.38;;;;;;;8.42;58.21;102801.22;5071123;28;20074;-65
2022/03/25 03:05:54;;;;;;;54.10;37.75;;;;;;;8.44;58.08;102795.88;5084779;28;20035;-65
2022/03/25 03:08:23;;;;;;;59.70;40.42;;;;;;;8.10;58.73;102797.47;5107671;28;20390;-65
2022/03/25 03:10:49;;;;;;;57.17;39.47;;;;;;;8.10;58.54;102799.25;5083334;28;20115;-65
2022/03/25 03:13:17;;;;;;;60.08;39.42;;;;;;;8.18;58.32;102800.81;5097853;28;20115;-65
2022/03/25 03:15:43;;;;;;;59.13;39.78;;;;;;;8.06;58.91;102798.44;5094096;28;20077;-65
2022/03/25 03:18:14;;;;;;;58.10;39.22;;;;;;;8.04;59.00;102802.03;5077054;28;20044;-65
2022/03/25 03:20:40;;;;;;;62.60;40.28;;;;;;;8.09;58.39;102795.72;5096548;28;20110;-65
2022/03/25 03:23:07;;;;;;;55.58;38.33;;;;;;;8.13;58.13;102800.03;5093001;28;20047;-65
2022/03/25 03:25:36;;;;;;;58.03;38.08;;;;;;;8.17;57.58;102804.34;5084284;28;20066;-65
2022/03/25 03:28:03;;;;;;;61.25;38.38;;;;;;;8.11;58.13;102800.97;5104837;28;20067;-65
2022/03/25 03:30:29;;;;;;;60.88;38.78;;;;;;;8.11;57.63;102800.97;5084599;28;20020;-66
2022/03/25 03:32:57;;;;;;;56.70;40.15;;;;;;;7.95;58.55;102801.31;5105406;28;20080;-65
2022/03/25 03:35:25;;;;;;;62.58;39.63;;;;;;;7.93;58.07;102805.75;5088147;28;20549;-65
2022/03/25 03:37:54;;;;;;;59.53;38.80;;;;;;;7.97;57.71;102788.00;5088481;28;20016;-65
2022/03/25 03:40:19;;;;;;;57.03;38.67;;;;;;;7.96;57.58;102802.16;5107760;28;20390;-65
2022/03/25 03:42:45;;;;;;;59.58;37.85;;;;;;;7.97;57.80;102798.59;5094492;28;20035;-65
2022/03/25 03:45:12;;;;;;;62.08;39.55;;;;;;;7.91;58.19;102799.63;5087211;28;20474;-65
2022/03/25 03:47:39;;;;;;;60.15;38.45;;;;;;;7.80;57.79;102792.81;5104711;28;20506;-65
2022/03/25 03:50:07;;;;;;;59.22;39.38;;;;;;;7.66;58.40;102796.59;5092208;28;20073;-65
2022/03/25 03:52:32;;;;;;;58.30;39.22;;;;;;;7.80;58.12;102793.66;5095737;28;20390;-65
2022/03/25 03:54:58;;;;;;;60.90;38.97;;;;;;;7.74;58.02;102796.44;5102045;28;20159;-65
2022/03/25 03:57:24;;;;;;;60.22;39.90;;;;;;;7.55;58.33;102795.03;5085372;28;20063;-65
2022/03/25 03:59:52;;;;;;;58.85;39.15;;;;;;;7.55;58.49;102800.34;5094417;28;20028;-65
2022/03/25 04:02:18;;;;;;;58.20;39.28;;;;;;;7.57;57.89;102803.84;5075121;28;20028;-65
2022/03/25 04:04:44;;;;;;;57.78;38.85;;;;;;;7.59;57.90;102804.66;5098627;28;20079;-65
2022/03/25 04:07:10;;;;;;;59.55;39.05;;;;;;;7.43;58.41;102799.66;5092604;28;20098;-65
2022/03/25 04:09:36;;;;;;;56.35;37.47;;;;;;;7.47;57.73;102809.31;5105764;28;20028;-65
2022/03/25 04:12:02;;;;;;;55.10;38.28;;;;;;;7.46;58.09;102798.75;5073121;28;20035;-65
2022/03/25 04:14:27;;;;;;;60.05;38.88;;;;;;;7.31;58.55;102801.66;5072752;28;20426;-65
2022/03/25 04:16:53;;;;;;;59.20;39.83;;;;;;;7.18;59.06;102801.03;5075711;28;20111;-65
2022/03/25 04:19:18;;;;;;;57.17;39.75;;;;;;;7.12;59.13;102796.72;5077934;28;20051;-65
2022/03/25 04:21:44;;;;;;;58.60;38.85;;;;;;;7.23;58.38;102801.78;5079250;28;20375;-65
2022/03/25 04:24:09;;;;;;;61.47;39.72;;;;;;;7.20;58.50;102802.72;5095536;28;20394;-65
2022/03/25 04:26:34;;;;;;;64.20;40.17;;;;;;;7.23;58.89;102812.38;5078988;28;20028;-65
2022/03/25 04:29:02;;;;;;;60.53;39.63;;;;;;;7.13;59.33;102816.97;5093543;28;20050;-65
2022/03/25 04:31:27;;;;;;;59.22;39.35;;;;;;;7.14;58.78;102809.91;5080121;28;20040;-65
2022/03/25 04:33:54;;;;;;;58.72;37.85;;;;;;;7.14;58.85;102817.84;5097861;28;20042;-65
2022/03/25 04:36:19;;;;;;;61.50;39.15;;;;;;;7.19;58.12;102816.00;5105270;28;20027;-65
2022/03/25 04:38:45;;;;;;;61.80;39.88;;;;;;;7.01;58.83;102817.19;5092184;28;20035;-65
2022/03/25 04:41:11;;;;;;;57.72;38.45;;;;;;;7.04;58.65;102817.13;5088632;28;20076;-65
2022/03/25 04:43:37;;;;;;;59.20;38.45;;;;;;;6.94;58.73;102819.06;5090950;28;20054;-65
2022/03/25 04:46:03;;;;;;;64.07;41.13;;;;;;;7.02;59.06;102829.50;5073660;28;20048;-65
2022/03/25 04:48:29;;;;;;;61.45;39.00;;;;;;;6.97;59.04;102823.41;5094454;28;20028;-65
2022/03/25 04:50:54;;;;;;;60.25;40.28;;;;;;;6.99;59.13;102819.81;5091375;28;20020;-65
2022/03/25 04:53:19;;;;;;;63.70;40.55;;;;;;;6.90;59.03;102822.63;5090827;28;20020;-65
2022/03/25 04:55:45;;;;;;;63.58;40.88;;;;;;;6.97;58.45;102820.75;5094720;28;20027;-65
2022/03/25 04:58:11;;;;;;;62.33;40.97;;;;;;;6.90;59.42;102827.91;5104210;28;20826;-65
2022/03/25 05:00:37;;;;;;;62.05;39.35;;;;;;;6.79;59.51;102824.56;5079121;28;20028;-65
2022/03/25 05:03:03;;;;;;;61.95;41.55;;;;;;;6.79;59.51;102821.91;5081690;28;20028;-65
2022/03/25 05:05:30;;;;;;;64.57;40.53;;;;;;;6.67;59.70;102825.63;5077947;28;20035;-65
2022/03/25 05:07:56;;;;;;;65.20;40.60;;;;;;;6.76;59.54;102829.91;5084514;28;20055;-65
2022/03/25 05:10:22;;;;;;;64.18;40.53;;;;;;;6.75;58.80;102826.38;5082915;28;20451;-65
2022/03/25 05:12:48;;;;;;;62.92;41.65;;;;;;;6.58;59.74;102821.34;5111594;28;20106;-65
2022/03/25 05:15:14;;;;;;;65.03;40.30;;;;;;;6.71;59.38;102826.47;5090559;28;20035;-65
2022/03/25 05:18:00;;;;;;;60.17;39.45;;;;;;;6.72;59.12;102833.50;5083003;28;20031;-65
2022/03/25 05:20:25;;;;;;;67.07;40.03;;;;;;;6.66;59.39;102825.66;5102728;28;20031;-65
2022/03/25 05:22:51;;;;;;;64.57;39.78;;;;;;;6.68;59.67;102834.44;5078374;28;20070;-65
2022/03/25 05:25:20;;;;;;;61.78;41.22;;;;;;;6.53;59.28;102835.50;5094603;28;20024;-65
2022/03/25 05:27:50;;;;;;;64.97;41.45;;;;;;;6.66;59.28;102829.16;5109586;28;20486;-65
2022/03/25 05:30:20;;;;;;;62.83;40.33;;;;;;;6.57;59.47;102837.25;5114306;28;20028;-65
2022/03/25 05:32:46;;;;;;;70.30;43.20;;;;;;;6.46;59.85;102832.09;5103617;28;20032;-65
2022/03/25 05:35:11;;;;;;;63.08;43.03;;;;;;;6.49;59.39;102837.34;5093966;28;20032;-65
2022/03/25 05:37:38;;;;;;;65.22;41.72;;;;;;;6.43;59.65;102831.25;5105158;28;20032;-65
2022/03/25 05:40:05;;;;;;;68.97;42.88;;;;;;;6.46;59.91;102836.50;5109144;28;20107;-65
2022/03/25 05:42:32;;;;;;;69.43;42.00;;;;;;;6.43;59.71;102833.91;5100327;28;20434;-65
2022/03/25 05:44:58;;;;;;;68.13;42.28;;;;;;;6.47;59.86;102838.25;5096088;28;20055;-65
2022/03/25 05:47:24;;;;;;;66.88;42.08;;;;;;;6.53;60.15;102840.81;5093850;28;20055;-65
2022/03/25 05:49:50;;;;;;;67.78;42.78;;;;;;;6.41;60.48;102849.78;5099246;28;20031;-65
2022/03/25 05:52:16;;;;;;;64.03;42.60;;;;;;;6.40;60.00;102849.81;5080021;28;20539;-65
2022/03/25 05:54:42;;;;;;;63.63;41.92;;;;;;;6.42;60.66;102845.38;5086683;28;20048;-65
2022/03/25 05:57:08;;;;;;;68.60;40.70;;;;;;;6.46;60.75;102847.94;5098150;28;20096;-65
2022/03/25 05:59:36;;;;;;;69.63;43.50;;;;;;;6.38;60.92;102849.81;5082314;28;20490;-65
2022/03/25 06:02:02;;;;;;;66.85;43.03;;;;;;;6.44;61.17;102854.16;5096178;28;20080;-65
2022/03/25 06:04:27;;;;;;;67.30;42.28;;;;;;;6.22;60.74;102833.31;5080744;28;20507;-66
2022/03/25 06:06:53;;;;;;;67.65;43.20;;;;;;;6.30;61.32;102847.28;5102785;28;20020;-65
2022/03/25 06:09:21;;;;;;;68.20;43.25;;;;;;;6.40;60.68;102844.53;5069658;28;20115;-65
2022/03/25 06:11:47;;;;;;;65.43;42.63;;;;;;;6.43;61.28;102849.78;5076791;28;20415;-65
2022/03/25 06:14:12;;;;;;;65.68;43.90;;;;;;;6.45;60.57;102855.91;5077397;28;20113;-65
2022/03/25 06:16:39;;;;;;;66.32;41.97;;;;;;;6.36;61.28;102855.13;5111919;28;20206;-65
2022/03/25 06:19:05;;;;;;;65.43;41.17;;;;;;;6.46;61.42;102858.53;5101406;28;20115;-65
2022/03/25 06:21:31;;;;;;;69.40;43.58;;;;;;;6.51;61.50;102867.28;5106425;28;20106;-65
2022/03/25 06:23:57;;;;;;;72.63;44.22;;;;;;;6.48;61.87;102871.72;5100891;28;20145;-65
2022/03/25 06:26:22;;;;;;;68.30;44.10;;;;;;;6.61;61.35;102868.00;5086305;28;20038;-65
2022/03/25 06:28:48;;;;;;;66.40;43.28;;;;;;;6.67;61.40;102870.56;5093416;28;20048;-65
2022/03/25 06:31:13;;;;;;;67.75;44.67;;;;;;;6.57;61.07;102867.19;5080174;28;20051;-65
2022/03/25 06:33:40;;;;;;;72.78;45.78;;;;;;;6.67;61.30;102870.56;5100628;28;20023;-65
2022/03/25 06:36:13;;;;;;;71.72;45.33;;;;;;;6.72;61.10;102868.75;5102981;28;20020;-65
2022/03/25 06:38:42;;;;;;;74.32;46.90;;;;;;;6.65;61.62;102864.44;5100651;28;20024;-65
2022/03/25 06:41:07;;;;;;;72.93;46.63;;;;;;;6.79;61.25;102883.66;5094165;28;20028;-65
2022/03/25 06:43:33;;;;;;;82.60;49.17;;;;;;;6.88;61.13;102879.09;5093172;28;20023;-65
2022/03/25 06:45:59;;;;;;;79.05;50.22;;;;;;;6.92;61.72;102881.69;5106470;28;20029;-65
2022/03/25 06:48:25;;;;;;;75.85;48.00;;;;;;;6.98;61.37;102881.59;5082399;28;20449;-65
2022/03/25 06:50:51;;;;;;;76.97;48.78;;;;;;;7.05;61.85;102882.34;5085600;28;20449;-65
2022/03/25 06:53:21;;;;;;;75.45;49.72;;;;;;;7.13;61.52;102880.47;5076765;28;20050;-65
2022/03/25 06:55:51;;;;;;;76.43;49.90;;;;;;;7.25;60.97;102882.03;5075983;28;20024;-65
2022/03/25 06:58:16;;;;;;;82.72;51.78;;;;;;;7.42;61.19;102876.47;5076936;28;20038;-65
2022/03/25 07:00:45;;;;;;;81.28;53.00;;;;;;;7.58;60.59;102882.38;5076912;28;20483;-65
2022/03/25 07:03:12;;;;;;;83.13;55.22;;;;;;;7.64;60.39;102879.59;5086927;28;20136;-65
2022/03/25 07:05:38;;;;;;;82.70;53.92;;;;;;;7.80;59.68;102881.09;5062156;28;20035;-65
2022/03/25 07:08:04;;;;;;;78.40;52.08;;;;;;;7.83;59.73;102881.03;5094355;28;20031;-65
2022/03/25 07:10:30;;;;;;;86.18;54.97;;;;;;;7.87;59.53;102888.00;5093109;28;20028;-66
2022/03/25 07:13:00;;;;;;;86.47;56.83;;;;;;;8.05;59.30;102891.19;5112453;28;20135;-65
2022/03/25 07:15:26;;;;;;;82.10;54.13;;;;;;;8.12;59.97;102893.72;5082887;28;20024;-65
2022/03/25 07:17:54;;;;;;;80.78;55.22;;;;;;;8.32;58.87;102895.06;5104882;28;20085;-65
2022/03/25 07:20:25;;;;;;;86.07;57.10;;;;;;;8.45;58.63;102893.09;5092404;28;20126;-65
2022/03/25 07:22:52;;;;;;;88.28;56.47;;;;;;;8.51;57.90;102899.13;5085657;28;20458;-65
2022/03/25 07:25:18;;;;;;;81.57;55.53;;;;;;;8.61;58.18;102895.34;5075414;28;20035;-65
2022/03/25 07:27:46;;;;;;;81.68;55.53;;;;;;;8.75;57.97;102903.03;5109274;28;20444;-65
2022/03/25 07:30:14;;;;;;;80.93;55.90;;;;;;;8.86;57.59;102906.31;5101127;28;20084;-65
2022/03/25 07:32:39;;;;;;;86.40;58.08;;;;;;;8.97;57.64;102914.03;5093675;28;20027;-66
2022/03/25 07:35:06;;;;;;;90.32;58.42;;;;;;;8.98;57.48;102907.81;5102319;28;20386;-66
2022/03/25 07:37:31;;;;;;;84.88;56.95;;;;;;;9.02;57.43;102908.59;5076105;28;20088;-66
2022/03/25 07:39:56;;;;;;;86.53;58.58;;;;;;;9.06;57.54;102905.00;5079074;28;20122;-66
2022/03/25 07:42:23;;;;;;;89.18;59.95;;;;;;;9.17;57.32;102915.34;5091488;28;20128;-66
2022/03/25 07:44:49;;;;;;;87.43;56.95;;;;;;;9.25;57.13;102914.25;5094502;28;20059;-66
2022/03/25 07:47:15;;;;;;;83.50;57.30;;;;;;;9.43;56.96;102922.66;5108087;28;20072;-66
2022/03/25 07:49:41;;;;;;;87.28;57.22;;;;;;;9.46;56.87;102911.97;5112270;28;20032;-66
2022/03/25 07:52:08;;;;;;;88.10;58.60;;;;;;;9.64;56.56;102929.22;5093417;28;20074;-66
2022/03/25 07:54:34;;;;;;;84.95;58.22;;;;;;;9.62;56.59;102923.97;5102063;28;20037;-66
2022/03/25 07:57:00;;;;;;;88.63;57.15;;;;;;;9.82;55.90;102934.03;5111382;28;20063;-66
2022/03/25 07:59:26;;;;;;;83.93;56.20;;;;;;;9.97;55.30;102936.31;5093668;28;20539;-66
2022/03/25 08:01:52;;;;;;;87.82;54.80;;;;;;;10.12;54.83;102942.13;5111009;28;20047;-66
2022/03/25 08:04:24;;;;;;;87.65;58.97;;;;;;;10.25;54.22;102943.53;5073852;28;20031;-66
2022/03/25 08:06:54;;;;;;;82.50;56.75;;;;;;;10.36;54.63;102945.94;5083564;28;20019;-66
2022/03/25 08:09:23;;;;;;;91.43;60.03;;;;;;;10.47;54.13;102946.50;5112089;28;20027;-66
2022/03/25 08:11:50;;;;;;;88.63;57.78;;;;;;;10.57;53.24;102939.97;5102434;28;20462;-66
2022/03/25 08:14:18;;;;;;;80.40;57.00;;;;;;;10.66;52.69;102944.16;5056811;28;20039;-66
2022/03/25 08:16:45;;;;;;;84.40;58.25;;;;;;;10.71;51.91;102946.66;5072238;28;20055;-66
2022/03/25 08:19:13;;;;;;;78.20;56.40;;;;;;;10.81;52.34;102946.34;5108317;28;20506;-66
2022/03/25 08:21:39;;;;;;;79.43;58.05;;;;;;;10.94;51.76;102938.84;5093093;28;20030;-66
2022/03/25 08:29:36;;;;;;;73.82;52.67;;;;;;;11.53;48.03;102959.16;5098711;28;20063;-66
2022/03/25 08:32:02;;;;;;;78.07;52.63;;;;;;;11.65;48.68;102958.78;5091071;28;20466;-66
2022/03/25 08:34:28;;;;;;;77.07;53.05;;;;;;;11.81;48.12;102962.66;5093319;28;20066;-66
2022/03/25 08:36:54;;;;;;;74.43;53.38;;;;;;;11.95;48.20;102961.34;5110438;28;20102;-65
2022/03/25 08:39:20;;;;;;;74.97;53.67;;;;;;;12.10;47.76;102966.16;5111231;28;20470;-67
2022/03/25 08:41:47;;;;;;;73.97;52.35;;;;;;;12.19;48.05;102968.47;5093324;28;20144;-66
2022/03/25 08:44:14;;;;;;;77.93;51.05;;;;;;;12.29;47.37;102977.00;5111469;28;20058;-66
2022/03/25 08:46:40;;;;;;;77.50;50.85;;;;;;;12.35;46.97;102965.25;5090259;28;20110;-66
2022/03/25 08:49:06;;;;;;;73.07;48.25;;;;;;;12.30;45.30;102965.44;5091282;28;20023;-66
2022/03/25 08:51:32;;;;;;;73.03;49.53;;;;;;;12.58;45.74;102962.59;5082355;28;20052;-65
2022/03/25 08:53:58;;;;;;;77.90;49.75;;;;;;;12.80;44.62;102962.69;5072924;28;20024;-66
2022/03/25 08:56:24;;;;;;;75.95;49.67;;;;;;;12.96;43.65;102969.16;5093130;28;20467;-66
2022/03/25 08:58:54;;;;;;;73.50;49.45;;;;;;;13.07;44.19;102970.53;5072983;28;20386;-66
2022/03/25 09:01:19;;;;;;;;;;;;;;;13.35;44.32;102970.31;5083471;28;20054;-66
2022/03/25 09:03:45;;;;;;;71.85;46.70;;;;;;;13.38;42.49;102970.19;5108398;28;19947;-66
2022/03/25 09:06:11;;;;;;;69.88;47.75;;;;;;;13.57;41.61;102970.31;5092786;28;20032;-66
2022/03/25 09:08:39;;;;;;;68.50;46.75;;;;;;;13.77;42.39;102975.72;5071924;28;20092;-66
2022/03/25 09:11:06;;;;;;;67.97;46.72;;;;;;;13.85;42.53;102981.63;5064427;28;20035;-65
2022/03/25 09:13:32;;;;;;;71.50;46.97;;;;;;;13.98;41.55;102994.47;5090764;28;20060;-66
2022/03/25 09:15:57;;;;;;;71.07;47.58;;;;;;;14.02;41.13;102982.69;5074265;28;20502;-66
2022/03/25 09:18:23;;;;;;;65.55;44.83;;;;;;;14.15;40.03;102986.56;5073874;28;20028;-66
2022/03/25 09:20:51;;;;;;;65.72;45.97;;;;;;;14.19;39.22;102996.19;5073629;28;20504;-66
2022/03/25 09:23:17;;;;;;;63.83;44.63;;;;;;;14.33;40.26;102990.25;5092977;28;20095;-66
2022/03/25 09:25:46;;;;;;;67.15;45.97;;;;;;;14.42;39.28;102988.97;5100298;28;20151;-66
2022/03/25 09:28:12;;;;;;;71.05;47.22;;;;;;;14.52;39.32;102992.97;5110631;28;20048;-66
2022/03/25 09:30:38;;;;;;;63.90;45.45;;;;;;;14.62;38.33;102996.09;5092679;28;20031;-66
2022/03/25 09:33:06;;;;;;;67.13;43.95;;;;;;;14.85;38.69;102989.69;5101618;28;20610;-66
2022/03/25 09:35:32;;;;;;;70.63;46.35;;;;;;;14.96;38.15;102979.34;5101667;28;20470;-66
2022/03/25 09:37:57;;;;;;;70.25;44.50;;;;;;;15.05;37.57;102984.25;5095021;28;20085;-66
2022/03/25 09:40:26;;;;;;;61.38;43.08;;;;;;;15.16;38.22;102989.13;5090642;28;20020;-66
2022/03/25 09:42:55;;;;;;;64.18;41.80;;;;;;;15.41;38.11;102962.84;5090767;28;20066;-67
2022/03/25 09:45:22;;;;;;;61.33;41.85;;;;;;;15.66;37.21;102983.94;5086680;28;20473;-66
2022/03/25 09:47:48;;;;;;;61.60;43.30;;;;;;;15.71;37.19;102983.75;5093150;28;20040;-66
2022/03/25 09:50:17;;;;;;;63.20;41.63;;;;;;;16.01;37.72;102984.00;5083970;28;20566;-66
2022/03/25 09:52:44;;;;;;;61.13;40.17;;;;;;;15.99;35.51;102985.00;5113889;28;20027;-66
2022/03/25 09:55:10;;;;;;;58.53;37.53;;;;;;;16.12;35.02;102962.81;5100488;28;20028;-66
2022/03/25 09:57:37;;;;;;;56.00;38.25;;;;;;;16.33;34.36;102974.25;5093780;28;20024;-66
2022/03/25 10:00:04;;;;;;;58.45;38.63;;;;;;;16.48;34.17;102980.59;5094759;28;20031;-66
2022/03/25 10:02:30;;;;;;;50.95;34.35;;;;;;;16.54;33.43;102976.72;5093829;28;20028;-66
2022/03/25 10:04:58;;;;;;;48.30;32.65;;;;;;;16.56;32.99;102973.00;5096276;28;20083;-66
2022/03/25 10:07:31;;;;;;;51.28;32.92;;;;;;;16.86;33.59;102977.69;5076993;28;20028;-66
2022/03/25 10:10:15;;;;;;;56.63;35.22;;;;;;;17.08;33.38;102976.47;5059396;28;20395;-66
2022/03/25 10:12:43;;;;;;;55.88;35.65;;;;;;;17.25;32.34;102971.84;5084178;28;20020;-66
2022/03/25 10:15:21;;;;;;;53.60;34.95;;;;;;;17.40;32.25;102971.94;5095554;28;20083;-65
2022/03/25 10:17:55;;;;;;;51.30;35.63;;;;;;;17.57;32.49;102973.66;5086833;28;20057;-66
2022/03/25 10:20:23;;;;;;;49.25;36.00;;;;;;;17.95;31.24;102981.31;5095878;28;20055;-66
2022/03/25 10:23:05;;;;;;;56.28;37.08;;;;;;;18.02;32.27;102978.13;5101312;28;20027;-66
2022/03/25 10:25:45;;;;;;;49.35;32.85;;;;;;;18.17;30.34;102976.34;5091756;28;20461;-66
2022/03/25 10:28:27;;;;;;;50.25;34.72;;;;;;;18.43;30.20;102969.34;5089296;28;20119;-66
2022/03/25 10:31:05;;;;;;;75.10;34.38;;;;;;;18.57;30.71;102968.47;5071673;28;20472;-66
2022/03/25 10:33:42;;;;;;;52.13;35.03;;;;;;;18.53;30.47;102970.50;5080625;28;20027;-66
2022/03/25 10:36:09;;;;;;;51.83;34.00;;;;;;;18.82;30.40;102963.31;5090537;28;20402;-66
2022/03/25 10:39:08;;;;;;;50.67;33.35;;;;;;;19.04;30.50;102957.38;5071777;28;20024;-66
2022/03/25 10:41:42;;;;;;;49.42;32.78;;;;;;;19.18;28.77;102964.56;5083944;28;20077;-66
2022/03/25 10:44:10;;;;;;;48.50;32.42;;;;;;;19.37;28.23;102960.63;5080657;28;20391;-66
2022/03/25 10:46:46;;;;;;;52.78;31.73;;;;;;;19.24;29.17;102960.59;5057716;28;20120;-66
2022/03/25 10:49:17;;;;;;;55.15;33.45;;;;;;;19.39;28.17;102962.28;5091637;28;20417;-66
2022/03/25 10:51:55;;;;;;;50.30;30.80;;;;;;;19.38;29.23;102957.81;5078392;28;20024;-66
2022/03/25 10:54:28;;;;;;;48.53;30.92;;;;;;;19.65;28.92;102957.84;5073975;28;20090;-66
2022/03/25 10:56:59;;;;;;;46.78;30.63;;;;;;;19.93;27.16;102956.81;5092065;28;20111;-67
2022/03/25 10:59:34;;;;;;;45.50;30.73;;;;;;;19.80;27.36;102944.28;5081347;28;20024;-66
2022/03/25 11:02:11;;;;;;;46.83;31.60;;;;;;;19.83;28.02;102952.16;5089531;28;20019;-64
2022/03/25 11:04:37;;;;;;;83.85;31.20;;;;;;;19.79;27.75;102951.50;5072615;28;20103;-65
2022/03/25 11:07:02;;;;;;;48.15;30.27;;;;;;;19.55;29.33;102954.00;5072869;28;20120;-63
2022/03/25 11:09:32;;;;;;;45.22;29.48;;;;;;;19.66;27.96;102954.16;5072565;28;20028;-62
2022/03/25 11:11:58;;;;;;;;;;;;;;;20.02;28.90;102954.44;5072852;28;20068;-63
2022/03/25 11:14:24;;;;;;;48.33;30.92;;;;;;;19.57;28.30;102948.50;5074447;28;20544;-63
2022/03/25 11:16:57;;;;;;;42.92;30.02;;;;;;;19.93;28.95;102951.41;5074340;28;20024;-62
2022/03/25 11:19:23;;;;;;;42.28;29.48;;;;;;;20.11;26.87;102945.69;5092311;28;20020;-63
2022/03/25 11:21:50;;;;;;;47.40;29.52;;;;;;;20.49;26.77;102951.09;5091192;28;20084;-62